Time;durP1;ratioP1;P1;durP2;ratioP2;P2;SDS_P1;SDS_P2;PMS_P1;PMS_P2;Temp;Humidity;BMP_temperature;BMP_pressure;BME280_temperature;BME280_humidity;BME280_pressure;Samples;Min_cycle;Max_cycle;Signal;HPM_P1;HPM_P2
2023/05/03 00:01:00;;;;;;;7.90;2.97;;;6.80;99.90;;;;;;4946096;28;20054;-72
2023/05/03 00:03:27;;;;;;;6.55;3.38;;;6.80;99.90;;;;;;4951475;28;20047;-72
2023/05/03 00:05:52;;;;;;;5.18;2.75;;;6.90;99.90;;;;;;4934238;28;20055;-72
2023/05/03 00:08:18;;;;;;;6.90;2.90;;;6.90;99.90;;;;;;4949582;28;20133;-72
2023/05/03 00:10:44;;;;;;;8.13;2.97;;;6.90;99.90;;;;;;4933521;28;20047;-72
2023/05/03 00:13:09;;;;;;;7.72;3.70;;;7.00;99.90;;;;;;4944504;28;20129;-72
2023/05/03 00:15:35;;;;;;;7.57;2.90;;;7.00;99.90;;;;;;4950941;28;20137;-72
2023/05/03 00:18:01;;;;;;;4.78;2.70;;;7.00;99.90;;;;;;4947017;28;20119;-74
2023/05/03 00:20:27;;;;;;;6.18;3.17;;;7.00;99.90;;;;;;4949901;28;20116;-72
2023/05/03 00:22:53;;;;;;;6.75;2.67;;;7.00;99.90;;;;;;4947043;28;20481;-72
2023/05/03 00:25:19;;;;;;;5.38;2.60;;;7.00;99.90;;;;;;4949436;28;20147;-72
2023/05/03 00:27:44;;;;;;;8.60;2.95;;;7.00;99.90;;;;;;4949821;28;20126;-72
2023/05/03 00:30:10;;;;;;;6.10;2.83;;;7.00;99.90;;;;;;4930865;28;20047;-72
2023/05/03 00:32:37;;;;;;;4.63;2.78;;;7.00;99.90;;;;;;4951353;28;20043;-72
2023/05/03 00:35:02;;;;;;;7.32;2.90;;;7.00;99.90;;;;;;4948254;28;20039;-72
2023/05/03 00:37:29;;;;;;;3.70;2.88;;;7.00;99.90;;;;;;4949699;28;20039;-72
2023/05/03 00:39:55;;;;;;;5.55;3.00;;;7.10;99.90;;;;;;4946327;28;20068;-73
2023/05/03 00:42:22;;;;;;;11.52;3.75;;;7.10;99.90;;;;;;4953371;28;20547;-72
2023/05/03 00:44:48;;;;;;;5.65;2.97;;;7.10;99.90;;;;;;4949203;28;20073;-72
2023/05/03 00:47:15;;;;;;;4.65;3.10;;;7.00;99.90;;;;;;4947558;28;20074;-72
2023/05/03 00:49:41;;;;;;;6.45;3.45;;;7.10;99.90;;;;;;4948503;28;20044;-72
2023/05/03 00:52:08;;;;;;;5.85;3.17;;;7.10;99.90;;;;;;4931826;28;20066;-72
2023/05/03 00:54:34;;;;;;;6.00;3.40;;;7.10;99.90;;;;;;4949063;28;20043;-72
2023/05/03 00:57:00;;;;;;;6.63;3.35;;;7.10;99.90;;;;;;4947927;28;20047;-72
2023/05/03 00:59:27;;;;;;;6.82;2.95;;;7.10;99.90;;;;;;4946900;28;20093;-72
2023/05/03 01:01:52;;;;;;;9.68;2.97;;;7.20;99.90;;;;;;4946625;28;20669;-72
2023/05/03 01:04:20;;;;;;;5.80;2.90;;;7.20;99.90;;;;;;4947810;28;20043;-71
2023/05/03 01:07:00;;;;;;;5.80;3.10;;;7.20;99.90;;;;;;4949922;28;20086;-71
2023/05/03 01:09:38;;;;;;;9.73;3.17;;;7.20;99.90;;;;;;4947826;28;20051;-72
2023/05/03 01:12:13;;;;;;;5.03;3.13;;;7.20;99.90;;;;;;4949406;28;20097;-72
2023/05/03 01:15:11;;;;;;;5.40;3.60;;;7.10;99.90;;;;;;4936107;28;20066;-72
2023/05/03 01:17:53;;;;;;;6.72;3.55;;;7.10;99.90;;;;;;4949076;28;20078;-72
2023/05/03 01:20:23;;;;;;;7.15;3.78;;;7.10;99.90;;;;;;4952786;28;20411;-72
2023/05/03 01:23:04;;;;;;;5.85;3.10;;;7.10;99.90;;;;;;4952047;28;20055;-72
2023/05/03 01:25:29;;;;;;;7.65;3.03;;;7.10;99.90;;;;;;4949500;28;20047;-72
2023/05/03 01:27:55;;;;;;;5.78;2.80;;;7.10;99.90;;;;;;4952022;28;20394;-72
2023/05/03 01:30:25;;;;;;;6.85;3.00;;;7.10;99.90;;;;;;4950657;28;20047;-72
2023/05/03 01:33:18;;;;;;;5.25;3.05;;;7.10;99.90;;;;;;4948204;28;20045;-72
2023/05/03 01:36:07;;;;;;;5.65;3.42;;;7.00;99.90;;;;;;4952783;28;20122;-72
2023/05/03 01:38:36;;;;;;;9.27;3.50;;;7.00;99.90;;;;;;4951459;28;20123;-72
2023/05/03 01:41:09;;;;;;;6.78;3.63;;;7.00;99.90;;;;;;4952320;28;20047;-72
2023/05/03 01:43:35;;;;;;;6.78;3.53;;;7.00;99.90;;;;;;4951373;28;20043;-72
2023/05/03 01:46:01;;;;;;;7.38;3.28;;;6.90;99.90;;;;;;4948867;28;20155;-71
2023/05/03 01:48:27;;;;;;;4.28;2.90;;;6.90;99.90;;;;;;4952340;28;20122;-71
2023/05/03 01:50:52;;;;;;;7.13;3.40;;;6.90;99.90;;;;;;4934805;28;20110;-71
2023/05/03 01:53:19;;;;;;;7.97;3.47;;;6.90;99.90;;;;;;4950761;28;20094;-71
2023/05/03 01:55:44;;;;;;;9.40;3.30;;;6.90;99.90;;;;;;4947990;28;20046;-71
2023/05/03 01:58:10;;;;;;;6.75;2.63;;;6.80;99.90;;;;;;4949832;28;20048;-71
2023/05/03 02:00:37;;;;;;;5.72;3.47;;;6.80;99.90;;;;;;4934231;28;20494;-71
2023/05/03 02:03:03;;;;;;;7.57;3.30;;;6.80;99.90;;;;;;4953649;28;20047;-71
2023/05/03 02:05:28;;;;;;;5.03;3.08;;;6.80;99.90;;;;;;4951548;28;20050;-71
2023/05/03 02:07:54;;;;;;;5.32;3.00;;;6.80;99.90;;;;;;4956153;28;20109;-71
2023/05/03 02:10:20;;;;;;;7.25;3.35;;;6.80;99.90;;;;;;4935727;28;20055;-71
2023/05/03 02:12:45;;;;;;;10.65;4.00;;;6.80;99.90;;;;;;4951635;28;20043;-71
2023/05/03 02:15:12;;;;;;;8.27;3.38;;;6.80;99.90;;;;;;4951702;28;20058;-70
2023/05/03 02:17:39;;;;;;;6.38;3.10;;;6.80;99.90;;;;;;4934291;28;20155;-70
2023/05/03 02:20:08;;;;;;;6.53;3.22;;;6.80;99.90;;;;;;4948375;28;20039;-71
2023/05/03 02:22:34;;;;;;;7.30;3.40;;;6.80;99.90;;;;;;4950876;28;20035;-71
2023/05/03 02:25:00;;;;;;;6.63;3.00;;;6.80;99.90;;;;;;4951876;28;20050;-71
2023/05/03 02:27:25;;;;;;;4.40;3.10;;;6.80;99.90;;;;;;4950549;28;20047;-72
2023/05/03 02:29:51;;;;;;;8.60;3.75;;;6.80;99.90;;;;;;4950337;28;20071;-72
2023/05/03 02:32:17;;;;;;;5.68;3.35;;;6.80;99.90;;;;;;4937393;28;20055;-72
2023/05/03 02:34:47;;;;;;;5.80;3.10;;;6.80;99.90;;;;;;4950881;28;20202;-72
2023/05/03 02:37:13;;;;;;;5.93;3.17;;;6.80;99.90;;;;;;4952160;28;20047;-71
2023/05/03 02:39:39;;;;;;;5.55;2.72;;;6.90;99.90;;;;;;4949578;28;20053;-71
2023/05/03 02:42:05;;;;;;;6.05;3.30;;;6.90;99.90;;;;;;4948070;28;20118;-71
2023/05/03 02:44:31;;;;;;;6.18;3.25;;;6.90;99.90;;;;;;4951717;28;20035;-72
2023/05/03 02:46:56;;;;;;;5.93;3.00;;;6.90;99.90;;;;;;4951427;28;20035;-72
2023/05/03 02:49:22;;;;;;;4.35;2.50;;;6.90;99.90;;;;;;4950910;28;20462;-71
2023/05/03 02:51:47;;;;;;;8.40;2.78;;;6.90;99.90;;;;;;4947619;28;20051;-71
2023/05/03 02:54:13;;;;;;;6.15;3.03;;;6.90;99.90;;;;;;4948986;28;20796;-72
2023/05/03 02:56:39;;;;;;;5.50;2.75;;;6.90;99.90;;;;;;4947982;28;20518;-72
2023/05/03 02:59:05;;;;;;;8.13;3.17;;;6.90;99.90;;;;;;4951342;28;20039;-72
2023/05/03 03:01:32;;;;;;;8.20;3.47;;;6.90;99.90;;;;;;4951895;28;20047;-72
2023/05/03 03:03:58;;;;;;;10.27;3.45;;;6.90;99.90;;;;;;4950004;28;20083;-71
2023/05/03 03:06:24;;;;;;;7.05;2.60;;;6.90;99.90;;;;;;4949488;28;20081;-72
2023/05/03 03:08:50;;;;;;;7.15;3.13;;;7.00;99.90;;;;;;4935024;28;20471;-71
2023/05/03 03:11:16;;;;;;;6.35;2.80;;;7.00;99.90;;;;;;4948250;28;20055;-72
2023/05/03 03:13:42;;;;;;;6.65;2.63;;;7.00;99.90;;;;;;4947991;28;20136;-71
2023/05/03 03:16:08;;;;;;;7.15;2.70;;;7.00;99.90;;;;;;4935646;28;20421;-72
2023/05/03 03:18:34;;;;;;;4.63;2.67;;;7.00;99.90;;;;;;4935982;28;20051;-71
2023/05/03 03:21:01;;;;;;;6.93;2.63;;;7.00;99.90;;;;;;4950230;28;20126;-72
2023/05/03 03:23:26;;;;;;;3.28;2.10;;;7.10;99.90;;;;;;4945618;28;20133;-72
2023/05/03 03:25:52;;;;;;;5.82;2.30;;;7.10;99.90;;;;;;4945459;28;20134;-71
2023/05/03 03:28:18;;;;;;;7.68;2.10;;;7.10;99.90;;;;;;4951715;28;20043;-72
2023/05/03 03:30:44;;;;;;;7.43;2.33;;;7.10;99.90;;;;;;4951148;28;20485;-72
2023/05/03 03:33:10;;;;;;;6.82;2.72;;;7.10;99.90;;;;;;4946949;28;20101;-72
2023/05/03 03:35:36;;;;;;;6.30;2.70;;;7.10;99.90;;;;;;4949921;28;20072;-72
2023/05/03 03:38:03;;;;;;;7.07;1.52;;;7.10;99.90;;;;;;4951540;28;20073;-72
2023/05/03 03:40:29;;;;;;;6.30;2.05;;;7.20;99.90;;;;;;4945077;28;20046;-72
2023/05/03 03:42:54;;;;;;;7.63;1.95;;;7.20;99.90;;;;;;4950793;28;20054;-71
2023/05/03 03:45:20;;;;;;;4.78;2.00;;;7.20;99.90;;;;;;4948459;28;20105;-71
2023/05/03 03:47:46;;;;;;;7.78;2.03;;;7.20;99.90;;;;;;4945744;28;20043;-72
2023/05/03 03:50:12;;;;;;;3.20;1.60;;;7.20;99.90;;;;;;4932065;28;20620;-72
2023/05/03 03:52:38;;;;;;;4.95;1.65;;;7.20;99.90;;;;;;4952584;28;20510;-72
2023/05/03 03:55:03;;;;;;;4.60;1.70;;;7.20;99.90;;;;;;4949957;28;20043;-72
2023/05/03 03:57:30;;;;;;;6.70;2.13;;;7.20;99.90;;;;;;4951992;28;20047;-71
2023/05/03 03:59:59;;;;;;;4.47;1.90;;;7.20;99.90;;;;;;4949210;28;20371;-71
2023/05/03 04:02:27;;;;;;;4.82;1.77;;;7.30;99.90;;;;;;4951506;28;20039;-71
2023/05/03 04:04:52;;;;;;;6.53;1.50;;;7.20;99.90;;;;;;4951138;28;20036;-71
2023/05/03 04:07:18;;;;;;;13.80;1.77;;;7.20;99.90;;;;;;4947760;28;20046;-72
2023/05/03 04:09:44;;;;;;;5.50;1.67;;;7.30;99.90;;;;;;4953527;28;20043;-71
2023/05/03 04:12:10;;;;;;;6.68;1.48;;;7.30;99.90;;;;;;4950111;28;20049;-72
2023/05/03 04:14:35;;;;;;;7.57;1.40;;;7.30;99.90;;;;;;4947204;28;20113;-71
2023/05/03 04:17:01;;;;;;;4.95;1.60;;;7.30;99.90;;;;;;4951393;28;20121;-73
2023/05/03 04:19:27;;;;;;;2.78;1.30;;;7.30;99.90;;;;;;4948134;28;20050;-71
2023/05/03 04:21:53;;;;;;;3.55;1.70;;;7.30;99.90;;;;;;4948558;28;20043;-71
2023/05/03 04:24:18;;;;;;;3.08;1.60;;;7.30;99.90;;;;;;4950309;28;20047;-71
2023/05/03 04:26:44;;;;;;;6.45;1.73;;;7.30;99.90;;;;;;4949135;28;20079;-71
2023/05/03 04:29:11;;;;;;;6.60;2.00;;;7.30;99.90;;;;;;4947931;28;20051;-71
2023/05/03 04:31:39;;;;;;;3.95;1.80;;;7.30;99.90;;;;;;4951894;28;20073;-72
2023/05/03 04:34:06;;;;;;;4.55;2.15;;;7.30;99.90;;;;;;4942741;28;20059;-72
2023/05/03 04:36:32;;;;;;;4.78;2.33;;;7.20;99.90;;;;;;4947513;28;20581;-72
2023/05/03 04:38:58;;;;;;;5.47;2.10;;;7.30;99.90;;;;;;4951518;28;20043;-71
2023/05/03 04:41:24;;;;;;;4.93;2.17;;;7.30;99.90;;;;;;4949895;28;20413;-72
2023/05/03 04:43:50;;;;;;;6.53;2.33;;;7.30;99.90;;;;;;4949990;28;20044;-71
2023/05/03 04:46:17;;;;;;;5.32;2.20;;;7.30;99.90;;;;;;4948644;28;20059;-72
2023/05/03 04:48:44;;;;;;;8.30;1.88;;;7.40;99.90;;;;;;4935548;28;20115;-72
2023/05/03 04:51:09;;;;;;;5.13;1.80;;;7.40;99.90;;;;;;4952213;28;20410;-72
2023/05/03 04:53:35;;;;;;;6.10;2.05;;;7.40;99.90;;;;;;4950732;28;20043;-72
2023/05/03 04:56:01;;;;;;;4.97;1.95;;;7.40;99.90;;;;;;4948690;28;20051;-74
2023/05/03 04:58:26;;;;;;;2.88;1.65;;;7.50;99.90;;;;;;4952990;28;20479;-72
2023/05/03 05:00:52;;;;;;;5.25;2.58;;;7.50;99.90;;;;;;4949254;28;20046;-72
2023/05/03 05:03:18;;;;;;;4.75;2.15;;;7.50;99.90;;;;;;4948443;28;20066;-72
2023/05/03 05:05:45;;;;;;;4.93;2.08;;;7.60;99.90;;;;;;4953305;28;20447;-72
2023/05/03 05:08:10;;;;;;;7.25;1.85;;;7.60;99.90;;;;;;4951937;28;20460;-72
2023/05/03 05:10:37;;;;;;;8.68;2.20;;;7.60;99.90;;;;;;4932567;28;20556;-71
2023/05/03 05:13:03;;;;;;;5.22;1.67;;;7.70;99.90;;;;;;4951386;28;20085;-71
2023/05/03 05:15:29;;;;;;;5.93;2.00;;;7.70;99.90;;;;;;4953174;28;20094;-71
2023/05/03 05:17:55;;;;;;;2.95;1.70;;;7.70;99.90;;;;;;4935778;28;20043;-72
2023/05/03 05:20:21;;;;;;;6.53;2.00;;;7.80;99.90;;;;;;4953611;28;20047;-72
2023/05/03 05:22:46;;;;;;;3.83;2.03;;;7.80;99.90;;;;;;4946309;28;20105;-71
2023/05/03 05:25:12;;;;;;;6.13;2.05;;;7.80;99.90;;;;;;4949069;28;20048;-71
2023/05/03 05:27:38;;;;;;;6.10;1.95;;;7.90;99.90;;;;;;4951905;28;20082;-72
2023/05/03 05:30:05;;;;;;;6.70;2.90;;;7.90;99.90;;;;;;4950016;28;20604;-72
2023/05/03 05:32:30;;;;;;;12.02;2.90;;;7.90;99.90;;;;;;4951923;28;20054;-72
2023/05/03 05:34:56;;;;;;;7.13;2.10;;;7.90;99.90;;;;;;4954235;28;20562;-72
2023/05/03 05:37:22;;;;;;;4.82;2.08;;;8.00;99.90;;;;;;4951901;28;20043;-74
2023/05/03 05:39:48;;;;;;;10.30;2.83;;;8.00;99.90;;;;;;4953635;28;20215;-73
2023/05/03 05:42:14;;;;;;;5.82;2.15;;;8.00;99.90;;;;;;4931335;28;20122;-74
2023/05/03 05:44:40;;;;;;;9.40;2.17;;;8.10;99.90;;;;;;4951838;28;20594;-75
2023/05/03 05:47:07;;;;;;;5.65;1.98;;;8.20;99.90;;;;;;4950256;28;20113;-74
2023/05/03 05:49:32;;;;;;;2.80;1.50;;;8.20;99.90;;;;;;4951324;28;20039;-73
2023/05/03 05:51:58;;;;;;;7.47;2.08;;;8.30;99.90;;;;;;4952591;28;20509;-74
2023/05/03 05:54:24;;;;;;;5.22;2.00;;;8.30;99.90;;;;;;4933355;28;20118;-73
2023/05/03 05:56:49;;;;;;;5.90;1.52;;;8.30;99.90;;;;;;4952314;28;20050;-73
2023/05/03 05:59:15;;;;;;;7.72;1.55;;;8.40;99.90;;;;;;4950321;28;20059;-73
2023/05/03 06:01:44;;;;;;;5.13;1.70;;;8.40;99.90;;;;;;4952314;28;20054;-73
2023/05/03 06:04:11;;;;;;;4.22;1.45;;;8.50;99.90;;;;;;4947618;28;20168;-74
2023/05/03 06:06:37;;;;;;;7.00;2.03;;;8.50;99.90;;;;;;4952553;28;20055;-73
2023/05/03 06:09:03;;;;;;;5.65;1.90;;;8.60;99.90;;;;;;4949378;28;20110;-74
2023/05/03 06:11:29;;;;;;;5.60;1.48;;;8.60;99.90;;;;;;4948739;28;20039;-73
2023/05/03 06:13:56;;;;;;;7.45;1.33;;;8.70;99.90;;;;;;4934544;28;20046;-74
2023/05/03 06:16:23;;;;;;;6.57;1.65;;;8.70;99.90;;;;;;4954857;28;20051;-73
2023/05/03 06:18:49;;;;;;;4.05;1.27;;;8.80;99.90;;;;;;4954235;28;20063;-73
2023/05/03 06:21:15;;;;;;;4.80;1.10;;;8.80;99.90;;;;;;4943145;28;20323;-74
2023/05/03 06:23:41;;;;;;;4.03;1.80;;;8.80;99.90;;;;;;4945024;28;20050;-74
2023/05/03 06:26:07;;;;;;;6.38;1.33;;;8.90;99.90;;;;;;4948552;28;20054;-72
2023/05/03 06:28:34;;;;;;;3.30;1.58;;;8.90;99.90;;;;;;4927942;28;20051;-72
2023/05/03 06:31:00;;;;;;;5.90;1.50;;;8.90;99.90;;;;;;4948833;28;20492;-72
2023/05/03 06:33:26;;;;;;;6.78;1.60;;;9.00;99.90;;;;;;4945429;28;20094;-72
2023/05/03 06:35:51;;;;;;;4.40;1.30;;;9.10;99.90;;;;;;4950031;28;20039;-72
2023/05/03 06:38:17;;;;;;;5.93;1.20;;;9.20;99.90;;;;;;4949720;28;20450;-72
2023/05/03 06:40:46;;;;;;;8.38;2.63;;;9.30;99.90;;;;;;4950888;28;20051;-70
2023/05/03 06:43:12;;;;;;;4.45;1.40;;;9.40;99.90;;;;;;4934742;28;20043;-70
2023/05/03 06:45:40;;;;;;;3.90;1.60;;;9.50;99.90;;;;;;4948904;28;20046;-70
2023/05/03 06:48:06;;;;;;;5.68;1.63;;;9.50;99.90;;;;;;4953972;28;20477;-71
2023/05/03 06:50:32;;;;;;;8.30;2.72;;;9.50;99.90;;;;;;4951477;28;20475;-70
2023/05/03 06:52:58;;;;;;;4.75;1.40;;;9.60;99.90;;;;;;4951047;28;20039;-71
2023/05/03 06:55:23;;;;;;;4.70;1.23;;;9.70;99.90;;;;;;4950451;28;20506;-70
2023/05/03 06:57:51;;;;;;;7.15;1.10;;;9.70;99.90;;;;;;4953506;28;20471;-71
2023/05/03 07:00:22;;;;;;;3.72;1.27;;;9.80;99.90;;;;;;4955294;28;20434;-71
2023/05/03 07:02:48;;;;;;;4.78;1.13;;;9.80;99.90;;;;;;4943342;28;20036;-71
2023/05/03 07:05:13;;;;;;;7.88;1.55;;;10.00;99.90;;;;;;4951160;28;20093;-72
2023/05/03 07:07:39;;;;;;;4.65;1.17;;;10.00;99.90;;;;;;4952689;28;20051;-73
2023/05/03 07:10:05;;;;;;;4.25;1.30;;;10.00;99.90;;;;;;4950340;28;20047;-71
2023/05/03 07:12:31;;;;;;;7.82;1.13;;;10.00;99.90;;;;;;4935814;28;20047;-71
2023/05/03 07:14:57;;;;;;;5.60;1.20;;;10.00;99.90;;;;;;4948916;28;20538;-71
2023/05/03 07:17:24;;;;;;;2.67;1.20;;;10.00;99.90;;;;;;4950885;28;20097;-71
2023/05/03 07:19:50;;;;;;;5.70;1.20;;;10.00;99.90;;;;;;4949010;28;20476;-72
2023/05/03 07:22:16;;;;;;;5.18;1.05;;;10.10;99.90;;;;;;4946821;28;20123;-71
2023/05/03 07:24:42;;;;;;;2.97;1.10;;;10.10;99.90;;;;;;4947875;28;20162;-71
2023/05/03 07:27:08;;;;;;;3.42;1.10;;;10.10;99.90;;;;;;4949171;28;20175;-72
2023/05/03 07:29:34;;;;;;;4.63;1.58;;;10.10;99.90;;;;;;4950484;28;20051;-71
2023/05/03 07:31:59;;;;;;;6.35;1.33;;;10.00;99.90;;;;;;4947281;28;20094;-71
2023/05/03 07:34:25;;;;;;;9.85;1.30;;;10.10;99.90;;;;;;4952284;28;20431;-72
2023/05/03 07:36:51;;;;;;;4.80;1.25;;;10.10;99.90;;;;;;4949123;28;20094;-71
2023/05/03 07:39:17;;;;;;;7.05;1.58;;;10.20;99.90;;;;;;4946948;28;20138;-71
2023/05/03 07:41:43;;;;;;;5.85;1.20;;;10.20;99.90;;;;;;4946026;28;20494;-71
2023/05/03 07:44:09;;;;;;;5.93;1.73;;;10.20;99.90;;;;;;4947451;28;20046;-72
2023/05/03 07:46:34;;;;;;;7.47;1.58;;;10.20;99.90;;;;;;4951966;28;20567;-71
2023/05/03 07:49:02;;;;;;;4.82;1.58;;;10.20;99.90;;;;;;4953260;28;20054;-71
2023/05/03 07:51:28;;;;;;;4.18;1.38;;;10.10;99.90;;;;;;4938409;28;20065;-71
2023/05/03 07:53:55;;;;;;;4.15;1.17;;;10.10;99.90;;;;;;4950999;28;20507;-71
2023/05/03 07:56:21;;;;;;;3.28;1.30;;;10.10;99.90;;;;;;4944604;28;20053;-71
2023/05/03 07:58:47;;;;;;;6.05;1.67;;;10.20;99.90;;;;;;4953051;28;20071;-71
2023/05/03 08:01:13;;;;;;;8.25;1.20;;;10.20;99.90;;;;;;4944407;28;20449;-72
2023/05/03 08:03:38;;;;;;;5.38;1.38;;;10.20;99.90;;;;;;4948764;28;20050;-71
2023/05/03 08:06:04;;;;;;;3.65;1.33;;;10.10;99.90;;;;;;4948846;28;20047;-72
2023/05/03 08:08:31;;;;;;;7.18;1.65;;;10.10;99.90;;;;;;4951636;28;20460;-72
2023/05/03 08:10:56;;;;;;;4.80;1.48;;;10.20;99.90;;;;;;4949320;28;20066;-72
2023/05/03 08:13:22;;;;;;;3.80;1.58;;;10.20;99.90;;;;;;4948772;28;20043;-72
2023/05/03 08:15:49;;;;;;;3.22;1.25;;;10.20;99.90;;;;;;4949270;28;20062;-72
2023/05/03 08:18:15;;;;;;;7.20;1.42;;;10.20;99.90;;;;;;4951067;28;20639;-72
2023/05/03 08:20:41;;;;;;;4.03;1.55;;;10.20;99.90;;;;;;4953214;28;20153;-72
2023/05/03 08:23:07;;;;;;;7.85;1.58;;;10.20;99.90;;;;;;4949632;28;20102;-71
2023/05/03 08:25:33;;;;;;;3.38;1.48;;;10.20;99.90;;;;;;4950040;28;21210;-72
2023/05/03 08:27:59;;;;;;;7.95;1.40;;;10.20;99.90;;;;;;4947706;28;20043;-71
2023/05/03 08:30:25;;;;;;;3.97;1.15;;;10.20;99.90;;;;;;4951980;28;20475;-72
2023/05/03 08:32:51;;;;;;;4.40;1.30;;;10.20;99.90;;;;;;4949753;28;20043;-71
2023/05/03 08:35:17;;;;;;;5.95;1.60;;;10.30;99.90;;;;;;4948702;28;20054;-72
2023/05/03 08:37:44;;;;;;;4.60;1.70;;;10.30;99.90;;;;;;4950035;28;20058;-72
2023/05/03 08:40:12;;;;;;;5.10;1.50;;;10.30;99.90;;;;;;4953549;28;20054;-71
2023/05/03 08:42:44;;;;;;;2.75;1.10;;;10.30;99.90;;;;;;4953991;28;20039;-72
2023/05/03 08:45:14;;;;;;;5.97;1.70;;;10.40;99.90;;;;;;4947119;28;20098;-71
2023/05/03 08:47:43;;;;;;;6.15;1.50;;;10.40;99.90;;;;;;4927582;28;20047;-72
2023/05/03 08:50:13;;;;;;;3.10;1.25;;;10.40;99.90;;;;;;4935767;28;20058;-72
2023/05/03 08:52:41;;;;;;;5.20;1.27;;;10.40;99.90;;;;;;4951147;28;20094;-72
2023/05/03 08:55:08;;;;;;;3.50;1.33;;;10.40;99.90;;;;;;4932824;28;20077;-72
2023/05/03 08:57:35;;;;;;;6.03;1.42;;;10.40;99.90;;;;;;4933043;28;20567;-72
2023/05/03 09:00:04;;;;;;;8.73;1.27;;;10.50;99.90;;;;;;4917381;28;20051;-72
2023/05/03 09:02:33;;;;;;;5.07;1.48;;;10.60;99.90;;;;;;4946697;28;20039;-72
2023/05/03 09:04:59;;;;;;;5.10;1.48;;;10.60;99.90;;;;;;4933195;28;20297;-72
2023/05/03 09:07:25;;;;;;;5.32;1.45;;;10.60;99.90;;;;;;4913979;28;20098;-72
2023/05/03 09:09:52;;;;;;;5.20;2.00;;;10.60;99.90;;;;;;4929602;28;20047;-72
2023/05/03 09:12:35;;;;;;;5.07;1.58;;;10.60;99.90;;;;;;4950308;28;20510;-71
2023/05/03 09:15:02;;;;;;;5.65;1.40;;;10.50;99.90;;;;;;4932075;28;20045;-73
2023/05/03 09:17:28;;;;;;;4.10;1.58;;;10.50;99.90;;;;;;4944666;28;20063;-71
2023/05/03 09:19:56;;;;;;;5.07;1.50;;;10.60;99.90;;;;;;4935196;28;20126;-72
2023/05/03 09:22:25;;;;;;;5.63;1.55;;;10.70;99.90;;;;;;4949574;28;20043;-72
2023/05/03 09:24:56;;;;;;;4.10;1.70;;;10.70;99.90;;;;;;4932216;28;20117;-72
2023/05/03 09:27:23;;;;;;;8.32;1.55;;;10.60;99.90;;;;;;4916767;28;20756;-69
2023/05/03 09:29:49;;;;;;;5.57;1.70;;;10.60;99.90;;;;;;4927848;28;20512;-71
2023/05/03 09:32:15;;;;;;;4.30;1.60;;;10.50;99.90;;;;;;4933193;28;20047;-71
2023/05/03 09:34:42;;;;;;;6.25;1.75;;;10.50;99.90;;;;;;4936928;28;20043;-71
2023/05/03 09:37:08;;;;;;;6.05;2.10;;;10.40;99.90;;;;;;4919008;28;20043;-71
2023/05/03 09:39:35;;;;;;;8.90;1.83;;;10.40;99.90;;;;;;4923235;28;20039;-71
2023/05/03 09:42:15;;;;;;;5.55;1.88;;;10.50;99.90;;;;;;4950675;28;20043;-71
2023/05/03 09:44:50;;;;;;;4.35;1.80;;;10.40;99.90;;;;;;4951908;28;20051;-71
2023/05/03 09:47:17;;;;;;;4.63;2.13;;;10.40;99.90;;;;;;4950891;28;20071;-71
2023/05/03 09:49:43;;;;;;;6.40;2.15;;;10.40;99.90;;;;;;4951718;28;20063;-71
2023/05/03 09:52:09;;;;;;;5.68;1.60;;;10.30;99.90;;;;;;4953264;28;20036;-71
2023/05/03 09:54:36;;;;;;;11.50;2.95;;;10.30;99.90;;;;;;4927334;28;20051;-70
2023/05/03 09:57:07;;;;;;;6.38;1.77;;;10.40;99.90;;;;;;4947454;28;20051;-71
2023/05/03 09:59:35;;;;;;;4.55;2.03;;;10.40;99.90;;;;;;4952353;28;20059;-71
2023/05/03 10:02:06;;;;;;;4.90;1.60;;;10.50;99.90;;;;;;4959064;28;20050;-73
2023/05/03 10:04:42;;;;;;;6.93;1.70;;;10.50;99.90;;;;;;4952222;28;20069;-71
2023/05/03 10:07:16;;;;;;;6.47;1.85;;;10.60;99.90;;;;;;4950847;28;20407;-71
2023/05/03 10:09:43;;;;;;;6.45;1.70;;;10.60;99.90;;;;;;4936404;28;20081;-71
2023/05/03 10:12:16;;;;;;;5.72;1.70;;;10.70;99.90;;;;;;4943579;28;20090;-71
2023/05/03 10:14:44;;;;;;;5.18;1.90;;;10.70;99.90;;;;;;4954598;28;20081;-71
2023/05/03 10:17:26;;;;;;;5.22;2.00;;;10.80;99.90;;;;;;4951277;28;20387;-71
2023/05/03 10:19:53;;;;;;;5.25;1.75;;;10.90;99.90;;;;;;4953661;28;20451;-71
2023/05/03 10:22:18;;;;;;;6.25;1.75;;;11.10;99.90;;;;;;4947565;28;20039;-71
2023/05/03 10:25:00;;;;;;;4.90;1.60;;;11.20;99.90;;;;;;4951903;28;20086;-71
2023/05/03 10:27:44;;;;;;;5.57;1.50;;;11.20;99.90;;;;;;4948122;28;20039;-70
2023/05/03 10:30:39;;;;;;;3.88;1.60;;;11.10;99.90;;;;;;4948417;28;20135;-71
2023/05/03 10:33:11;;;;;;;7.72;2.05;;;11.00;99.90;;;;;;4949361;28;20078;-71
2023/05/03 10:35:39;;;;;;;4.43;2.00;;;11.00;99.90;;;;;;4947546;28;20979;-71
2023/05/03 10:38:26;;;;;;;4.18;1.70;;;11.00;99.90;;;;;;4950313;28;20114;-71
2023/05/03 10:40:53;;;;;;;5.72;1.83;;;11.10;99.90;;;;;;4943983;28;20430;-71
2023/05/03 10:43:28;;;;;;;2.95;1.30;;;11.20;99.90;;;;;;4941738;28;20575;-71
2023/05/03 10:45:57;;;;;;;4.18;1.77;;;11.30;99.90;;;;;;4946407;28;20074;-71
2023/05/03 10:48:23;;;;;;;4.88;1.75;;;11.50;99.90;;;;;;4963944;28;20392;-71
2023/05/03 10:50:50;;;;;;;3.92;1.50;;;11.60;99.90;;;;;;4933012;28;20041;-71
2023/05/03 10:53:35;;;;;;;5.25;2.13;;;11.80;99.90;;;;;;4948653;28;20055;-71
2023/05/03 10:56:06;;;;;;;6.25;1.88;;;12.00;99.90;;;;;;4947734;28;20046;-70
2023/05/03 10:58:44;;;;;;;5.28;1.75;;;12.10;99.90;;;;;;4954070;28;20083;-71
2023/05/03 11:01:12;;;;;;;3.35;1.60;;;12.00;99.90;;;;;;4945952;28;20182;-71
2023/05/03 11:04:06;;;;;;;4.97;1.95;;;12.10;99.90;;;;;;4952164;28;20057;-71
2023/05/03 11:06:34;;;;;;;4.82;1.70;;;12.20;99.90;;;;;;4953268;28;20046;-71
2023/05/03 11:09:03;;;;;;;4.47;1.60;;;12.20;99.90;;;;;;4947707;28;20062;-70
2023/05/03 11:11:32;;;;;;;6.25;1.95;;;12.20;99.90;;;;;;4951930;28;20454;-71
2023/05/03 11:13:58;;;;;;;6.57;1.70;;;12.30;99.90;;;;;;4952544;28;20035;-71
2023/05/03 11:16:24;;;;;;;3.58;1.50;;;12.30;99.90;;;;;;4946648;28;20066;-71
2023/05/03 11:18:50;;;;;;;6.05;1.70;;;12.30;99.90;;;;;;4950426;28;20039;-71
2023/05/03 11:21:17;;;;;;;5.32;1.60;;;12.30;99.90;;;;;;4949267;28;20530;-70
2023/05/03 11:23:43;;;;;;;5.78;1.80;;;12.30;99.90;;;;;;4944263;28;20039;-71
2023/05/03 11:26:09;;;;;;;5.32;1.80;;;12.20;99.90;;;;;;4952407;28;20051;-71
2023/05/03 11:28:42;;;;;;;6.90;1.92;;;12.10;99.90;;;;;;4950433;28;20492;-71
2023/05/03 11:31:12;;;;;;;4.28;1.75;;;12.10;99.90;;;;;;4947808;28;20070;-70
2023/05/03 11:33:39;;;;;;;5.90;1.77;;;12.10;99.90;;;;;;4946341;28;20388;-71
2023/05/03 11:36:07;;;;;;;6.32;2.13;;;12.10;99.90;;;;;;4956839;28;20050;-71
2023/05/03 11:38:33;;;;;;;5.32;2.15;;;12.10;99.90;;;;;;4944888;28;20054;-71
2023/05/03 11:41:00;;;;;;;7.85;2.00;;;12.20;99.90;;;;;;4947540;28;20441;-71
2023/05/03 11:43:27;;;;;;;5.82;1.50;;;12.30;99.90;;;;;;4953540;28;20046;-71
2023/05/03 11:45:56;;;;;;;4.53;1.67;;;12.30;99.90;;;;;;4947914;28;20524;-70
2023/05/03 11:48:22;;;;;;;4.07;1.60;;;12.30;99.90;;;;;;4946985;28;20505;-70
2023/05/03 11:50:54;;;;;;;4.15;1.75;;;12.30;99.90;;;;;;4948511;28;20039;-70
2023/05/03 11:53:22;;;;;;;3.83;1.83;;;12.30;99.90;;;;;;4946721;28;20053;-70
2023/05/03 11:55:52;;;;;;;4.32;1.58;;;12.40;99.90;;;;;;4946512;28;20693;-70
2023/05/03 11:58:21;;;;;;;6.40;2.05;;;12.60;99.90;;;;;;4948172;28;21087;-71
2023/05/03 12:00:48;;;;;;;6.05;2.13;;;12.70;99.90;;;;;;4930905;28;20134;-70
2023/05/03 12:03:25;;;;;;;4.07;1.70;;;12.70;99.90;;;;;;4950709;28;20055;-71
2023/05/03 12:05:54;;;;;;;6.88;1.60;;;12.80;99.90;;;;;;4952473;28;20039;-70
2023/05/03 12:08:21;;;;;;;5.28;1.88;;;12.80;99.90;;;;;;4932521;28;20051;-70
2023/05/03 12:10:50;;;;;;;5.57;1.77;;;13.00;99.90;;;;;;4946392;28;20050;-70
2023/05/03 12:13:36;;;;;;;3.38;1.90;;;13.30;99.90;;;;;;4942739;28;20401;-70
2023/05/03 12:16:03;;;;;;;4.72;1.90;;;13.50;99.90;;;;;;4949826;28;20062;-71
2023/05/03 12:19:01;;;;;;;9.02;1.90;;;13.40;99.90;;;;;;4940462;28;20048;-70
2023/05/03 12:21:44;;;;;;;5.60;1.73;;;13.50;99.90;;;;;;4942641;28;20043;-70
2023/05/03 12:24:10;;;;;;;;;;;13.80;99.90;;;;;;4952153;28;20107;-71
2023/05/03 12:26:35;;;;;;;4.75;1.40;;;13.70;99.90;;;;;;4944488;28;19930;-70
2023/05/03 12:29:01;;;;;;;5.63;1.80;;;13.70;99.90;;;;;;4932663;28;20046;-71
2023/05/03 12:31:27;;;;;;;5.10;1.55;;;13.70;99.90;;;;;;4948766;28;20047;-70
2023/05/03 12:33:54;;;;;;;5.65;1.60;;;13.40;99.90;;;;;;4946784;28;20515;-70
2023/05/03 12:36:20;;;;;;;7.57;1.42;;;13.20;99.90;;;;;;4951511;28;20142;-70
2023/05/03 12:38:46;;;;;;;4.18;1.75;;;13.10;99.90;;;;;;4949788;28;20070;-70
2023/05/03 12:41:12;;;;;;;4.15;2.00;;;13.20;99.90;;;;;;4932812;28;20420;-71
2023/05/03 12:43:38;;;;;;;5.55;1.77;;;13.40;99.90;;;;;;4940309;28;20119;-70
2023/05/03 12:46:04;;;;;;;5.97;1.80;;;13.30;99.90;;;;;;4947920;28;20046;-71
2023/05/03 12:48:30;;;;;;;5.10;1.90;;;13.10;99.90;;;;;;4943783;28;20448;-70
2023/05/03 12:50:56;;;;;;;4.78;1.70;;;13.10;99.90;;;;;;4926809;28;20051;-70
2023/05/03 12:53:23;;;;;;;5.95;1.83;;;13.10;99.90;;;;;;4943339;28;20102;-70
2023/05/03 12:55:50;;;;;;;4.18;1.85;;;13.20;99.90;;;;;;4950395;28;20051;-70